sensor_id;sensor_type;location;lat;lon;timestamp;temperature;humidity
16863;DHT22;52193;48.216;-1.698;2022-11-15T00:02:10;15.20;99.90
16863;DHT22;52193;48.216;-1.698;2022-11-15T00:04:37;15.30;99.90
16863;DHT22;52193;48.216;-1.698;2022-11-15T00:07:06;15.30;99.90
16863;DHT22;52193;48.216;-1.698;2022-11-15T00:09:33;15.30;99.90
16863;DHT22;52193;48.216;-1.698;2022-11-15T00:12:00;15.30;99.90
16863;DHT22;52193;48.216;-1.698;2022-11-15T00:14:27;15.30;99.90
16863;DHT22;52193;48.216;-1.698;2022-11-15T00:16:54;15.30;99.90
16863;DHT22;52193;48.216;-1.698;2022-11-15T00:19:20;15.30;99.90
16863;DHT22;52193;48.216;-1.698;2022-11-15T00:21:47;15.30;99.90
16863;DHT22;52193;48.216;-1.698;2022-11-15T00:24:16;15.20;99.90
16863;DHT22;52193;48.216;-1.698;2022-11-15T00:26:43;15.20;99.90
16863;DHT22;52193;48.216;-1.698;2022-11-15T00:29:10;15.20;99.90
16863;DHT22;52193;48.216;-1.698;2022-11-15T00:31:37;15.30;99.90
16863;DHT22;52193;48.216;-1.698;2022-11-15T00:34:04;15.30;99.90
16863;DHT22;52193;48.216;-1.698;2022-11-15T00:36:32;15.30;99.90
16863;DHT22;52193;48.216;-1.698;2022-11-15T00:39:00;15.30;99.90
16863;DHT22;52193;48.216;-1.698;2022-11-15T00:41:28;15.20;99.90
16863;DHT22;52193;48.216;-1.698;2022-11-15T00:43:55;15.30;99.90
16863;DHT22;52193;48.216;-1.698;2022-11-15T00:46:22;15.30;99.90
16863;DHT22;52193;48.216;-1.698;2022-11-15T00:48:49;15.30;99.90
16863;DHT22;52193;48.216;-1.698;2022-11-15T00:51:16;15.30;99.90
16863;DHT22;52193;48.216;-1.698;2022-11-15T00:53:43;15.20;99.90
16863;DHT22;52193;48.216;-1.698;2022-11-15T00:56:10;15.20;99.90
16863;DHT22;52193;48.216;-1.698;2022-11-15T00:58:38;15.20;99.90
16863;DHT22;52193;48.216;-1.698;2022-11-15T01:01:07;15.30;99.90
16863;DHT22;52193;48.216;-1.698;2022-11-15T01:03:34;15.20;99.90
16863;DHT22;52193;48.216;-1.698;2022-11-15T01:06:01;15.20;99.90
16863;DHT22;52193;48.216;-1.698;2022-11-15T01:08:28;15.30;99.90
16863;DHT22;52193;48.216;-1.698;2022-11-15T01:11:00;15.30;99.90
16863;DHT22;52193;48.216;-1.698;2022-11-15T01:13:30;15.20;99.90
16863;DHT22;52193;48.216;-1.698;2022-11-15T01:15:58;15.30;99.90
16863;DHT22;52193;48.216;-1.698;2022-11-15T01:18:25;15.30;99.90
16863;DHT22;52193;48.216;-1.698;2022-11-15T01:20:52;15.20;99.90
16863;DHT22;52193;48.216;-1.698;2022-11-15T01:23:19;15.30;99.90
16863;DHT22;52193;48.216;-1.698;2022-11-15T01:25:46;15.30;99.90
16863;DHT22;52193;48.216;-1.698;2022-11-15T01:28:13;15.30;99.90
16863;DHT22;52193;48.216;-1.698;2022-11-15T01:30:40;15.40;99.90
16863;DHT22;52193;48.216;-1.698;2022-11-15T01:33:08;15.40;99.90
16863;DHT22;52193;48.216;-1.698;2022-11-15T01:35:38;15.40;99.90
16863;DHT22;52193;48.216;-1.698;2022-11-15T01:38:05;15.50;99.90
16863;DHT22;52193;48.216;-1.698;2022-11-15T01:40:32;15.40;99.90
16863;DHT22;52193;48.216;-1.698;2022-11-15T01:42:59;15.40;99.90
16863;DHT22;52193;48.216;-1.698;2022-11-15T01:45:26;15.40;99.90
16863;DHT22;52193;48.216;-1.698;2022-11-15T01:47:54;15.30;99.90
16863;DHT22;52193;48.216;-1.698;2022-11-15T01:50:27;15.40;99.90
16863;DHT22;52193;48.216;-1.698;2022-11-15T01:52:55;15.40;99.90
16863;DHT22;52193;48.216;-1.698;2022-11-15T01:55:25;15.40;99.90
16863;DHT22;52193;48.216;-1.698;2022-11-15T01:57:55;15.40;99.90
16863;DHT22;52193;48.216;-1.698;2022-11-15T02:00:23;15.40;99.90
16863;DHT22;52193;48.216;-1.698;2022-11-15T02:02:50;15.40;99.90
16863;DHT22;52193;48.216;-1.698;2022-11-15T02:05:18;15.40;99.90
16863;DHT22;52193;48.216;-1.698;2022-11-15T02:07:46;15.40;99.90
16863;DHT22;52193;48.216;-1.698;2022-11-15T02:10:19;15.40;99.90
16863;DHT22;52193;48.216;-1.698;2022-11-15T02:12:46;15.40;99.90
16863;DHT22;52193;48.216;-1.698;2022-11-15T02:15:14;15.40;99.90
16863;DHT22;52193;48.216;-1.698;2022-11-15T02:17:54;15.40;99.90
16863;DHT22;52193;48.216;-1.698;2022-11-15T02:20:56;15.50;99.90
16863;DHT22;52193;48.216;-1.698;2022-11-15T02:23:57;15.50;99.90
16863;DHT22;52193;48.216;-1.698;2022-11-15T02:29:37;15.50;99.90
16863;DHT22;52193;48.216;-1.698;2022-11-15T02:32:10;15.50;99.90
16863;DHT22;52193;48.216;-1.698;2022-11-15T02:34:50;15.50;99.90
16863;DHT22;52193;48.216;-1.698;2022-11-15T02:37:26;15.50;99.90
16863;DHT22;52193;48.216;-1.698;2022-11-15T02:40:01;15.50;99.90
16863;DHT22;52193;48.216;-1.698;2022-11-15T02:42:33;15.60;99.90
16863;DHT22;52193;48.216;-1.698;2022-11-15T02:45:25;15.60;99.90
16863;DHT22;52193;48.216;-1.698;2022-11-15T02:47:56;15.50;99.90
16863;DHT22;52193;48.216;-1.698;2022-11-15T02:50:28;15.50;99.90
16863;DHT22;52193;48.216;-1.698;2022-11-15T02:52:55;15.50;99.90
16863;DHT22;52193;48.216;-1.698;2022-11-15T02:55:28;15.60;99.90
16863;DHT22;52193;48.216;-1.698;2022-11-15T02:58:20;15.60;99.90
16863;DHT22;52193;48.216;-1.698;2022-11-15T03:00:55;15.60;99.90
16863;DHT22;52193;48.216;-1.698;2022-11-15T03:03:42;15.50;99.90
16863;DHT22;52193;48.216;-1.698;2022-11-15T03:06:20;15.60;99.90
16863;DHT22;52193;48.216;-1.698;2022-11-15T03:09:02;15.60;99.90
16863;DHT22;52193;48.216;-1.698;2022-11-15T03:11:34;15.60;99.90
16863;DHT22;52193;48.216;-1.698;2022-11-15T03:14:12;15.50;99.90
16863;DHT22;52193;48.216;-1.698;2022-11-15T03:16:45;15.50;99.90
16863;DHT22;52193;48.216;-1.698;2022-11-15T03:19:19;15.50;99.90
16863;DHT22;52193;48.216;-1.698;2022-11-15T03:21:49;15.50;99.90
16863;DHT22;52193;48.216;-1.698;2022-11-15T03:24:19;15.60;99.90
16863;DHT22;52193;48.216;-1.698;2022-11-15T03:26:48;15.50;99.90
16863;DHT22;52193;48.216;-1.698;2022-11-15T03:29:19;15.50;99.90
16863;DHT22;52193;48.216;-1.698;2022-11-15T03:31:51;15.50;99.90
16863;DHT22;52193;48.216;-1.698;2022-11-15T03:34:26;15.50;99.90
16863;DHT22;52193;48.216;-1.698;2022-11-15T03:36:54;15.50;99.90
16863;DHT22;52193;48.216;-1.698;2022-11-15T03:39:21;15.50;99.90
16863;DHT22;52193;48.216;-1.698;2022-11-15T03:41:56;15.40;99.90
16863;DHT22;52193;48.216;-1.698;2022-11-15T03:44:34;15.40;99.90
16863;DHT22;52193;48.216;-1.698;2022-11-15T03:47:07;15.40;99.90
16863;DHT22;52193;48.216;-1.698;2022-11-15T03:49:42;15.40;99.90
16863;DHT22;52193;48.216;-1.698;2022-11-15T03:52:11;15.40;99.90
16863;DHT22;52193;48.216;-1.698;2022-11-15T03:54:49;15.40;99.90
16863;DHT22;52193;48.216;-1.698;2022-11-15T03:57:16;15.40;99.90
16863;DHT22;52193;48.216;-1.698;2022-11-15T03:59:43;15.40;99.90
16863;DHT22;52193;48.216;-1.698;2022-11-15T04:02:11;15.40;99.90
16863;DHT22;52193;48.216;-1.698;2022-11-15T04:04:39;15.40;99.90
16863;DHT22;52193;48.216;-1.698;2022-11-15T04:07:06;15.40;99.90
16863;DHT22;52193;48.216;-1.698;2022-11-15T04:09:33;15.50;99.90
16863;DHT22;52193;48.216;-1.698;2022-11-15T04:12:21;15.40;99.90
16863;DHT22;52193;48.216;-1.698;2022-11-15T04:14:56;15.50;99.90
16863;DHT22;52193;48.216;-1.698;2022-11-15T04:17:34;15.50;99.90
16863;DHT22;52193;48.216;-1.698;2022-11-15T04:20:04;15.60;99.90
16863;DHT22;52193;48.216;-1.698;2022-11-15T04:22:48;15.50;99.90
16863;DHT22;52193;48.216;-1.698;2022-11-15T04:25:35;15.50;99.90
16863;DHT22;52193;48.216;-1.698;2022-11-15T04:28:02;15.50;99.90
16863;DHT22;52193;48.216;-1.698;2022-11-15T04:30:29;15.60;99.90
16863;DHT22;52193;48.216;-1.698;2022-11-15T04:32:56;15.50;99.90
16863;DHT22;52193;48.216;-1.698;2022-11-15T04:35:25;15.50;99.90
16863;DHT22;52193;48.216;-1.698;2022-11-15T04:37:52;15.60;99.90
16863;DHT22;52193;48.216;-1.698;2022-11-15T04:40:18;15.50;99.90
16863;DHT22;52193;48.216;-1.698;2022-11-15T04:42:44;15.40;99.90
16863;DHT22;52193;48.216;-1.698;2022-11-15T04:45:11;15.40;99.90
16863;DHT22;52193;48.216;-1.698;2022-11-15T04:47:38;15.40;99.90
16863;DHT22;52193;48.216;-1.698;2022-11-15T04:50:06;15.30;99.90
16863;DHT22;52193;48.216;-1.698;2022-11-15T04:52:34;15.30;99.90
16863;DHT22;52193;48.216;-1.698;2022-11-15T04:55:01;15.40;99.90
16863;DHT22;52193;48.216;-1.698;2022-11-15T04:57:28;15.40;99.90
16863;DHT22;52193;48.216;-1.698;2022-11-15T04:59:55;15.40;99.90
16863;DHT22;52193;48.216;-1.698;2022-11-15T05:02:22;15.30;99.90
16863;DHT22;52193;48.216;-1.698;2022-11-15T05:04:49;15.30;99.90
16863;DHT22;52193;48.216;-1.698;2022-11-15T05:07:15;15.20;99.90
16863;DHT22;52193;48.216;-1.698;2022-11-15T05:09:43;15.20;99.90
16863;DHT22;52193;48.216;-1.698;2022-11-15T05:12:10;15.20;99.90
16863;DHT22;52193;48.216;-1.698;2022-11-15T05:14:37;15.30;99.90
16863;DHT22;52193;48.216;-1.698;2022-11-15T05:17:04;15.30;99.90
16863;DHT22;52193;48.216;-1.698;2022-11-15T05:19:31;15.10;99.90
16863;DHT22;52193;48.216;-1.698;2022-11-15T05:21:58;15.10;99.90
16863;DHT22;52193;48.216;-1.698;2022-11-15T05:24:25;15.10;99.90
16863;DHT22;52193;48.216;-1.698;2022-11-15T05:26:53;15.00;99.90
16863;DHT22;52193;48.216;-1.698;2022-11-15T05:29:20;15.00;99.90
16863;DHT22;52193;48.216;-1.698;2022-11-15T05:31:47;15.00;99.90
16863;DHT22;52193;48.216;-1.698;2022-11-15T05:34:14;15.00;99.90
16863;DHT22;52193;48.216;-1.698;2022-11-15T05:36:43;15.10;99.90
16863;DHT22;52193;48.216;-1.698;2022-11-15T05:39:11;15.10;99.90
16863;DHT22;52193;48.216;-1.698;2022-11-15T05:41:41;15.20;99.90
16863;DHT22;52193;48.216;-1.698;2022-11-15T05:44:13;15.20;99.90
16863;DHT22;52193;48.216;-1.698;2022-11-15T05:46:41;15.30;99.90
16863;DHT22;52193;48.216;-1.698;2022-11-15T05:49:12;15.30;99.90
16863;DHT22;52193;48.216;-1.698;2022-11-15T05:51:39;15.20;99.90
16863;DHT22;52193;48.216;-1.698;2022-11-15T05:54:08;15.30;99.90
16863;DHT22;52193;48.216;-1.698;2022-11-15T05:56:36;15.30;99.90
16863;DHT22;52193;48.216;-1.698;2022-11-15T05:59:03;15.30;99.90
16863;DHT22;52193;48.216;-1.698;2022-11-15T06:01:32;15.30;99.90
16863;DHT22;52193;48.216;-1.698;2022-11-15T06:03:59;15.20;99.90
16863;DHT22;52193;48.216;-1.698;2022-11-15T06:06:27;15.10;99.90
16863;DHT22;52193;48.216;-1.698;2022-11-15T06:08:54;15.00;99.90
16863;DHT22;52193;48.216;-1.698;2022-11-15T06:11:21;15.00;99.90
16863;DHT22;52193;48.216;-1.698;2022-11-15T06:13:48;15.00;99.90
16863;DHT22;52193;48.216;-1.698;2022-11-15T06:16:15;14.90;99.90
16863;DHT22;52193;48.216;-1.698;2022-11-15T06:18:43;15.00;99.90
16863;DHT22;52193;48.216;-1.698;2022-11-15T06:21:10;15.00;99.90
16863;DHT22;52193;48.216;-1.698;2022-11-15T06:23:37;15.00;99.90
16863;DHT22;52193;48.216;-1.698;2022-11-15T06:26:04;15.00;99.90
16863;DHT22;52193;48.216;-1.698;2022-11-15T06:28:32;15.00;99.90
16863;DHT22;52193;48.216;-1.698;2022-11-15T06:31:02;14.90;99.90
16863;DHT22;52193;48.216;-1.698;2022-11-15T06:33:30;14.90;99.90
16863;DHT22;52193;48.216;-1.698;2022-11-15T06:36:01;14.90;99.90
16863;DHT22;52193;48.216;-1.698;2022-11-15T06:38:28;14.90;99.90
16863;DHT22;52193;48.216;-1.698;2022-11-15T06:40:55;14.80;99.90
16863;DHT22;52193;48.216;-1.698;2022-11-15T06:43:27;14.70;99.90
16863;DHT22;52193;48.216;-1.698;2022-11-15T06:45:54;14.70;99.90
16863;DHT22;52193;48.216;-1.698;2022-11-15T06:48:21;14.60;99.90
16863;DHT22;52193;48.216;-1.698;2022-11-15T06:50:50;14.70;99.90
16863;DHT22;52193;48.216;-1.698;2022-11-15T06:53:19;14.70;99.90
16863;DHT22;52193;48.216;-1.698;2022-11-15T06:55:46;14.70;99.90
16863;DHT22;52193;48.216;-1.698;2022-11-15T06:58:13;14.80;99.90
16863;DHT22;52193;48.216;-1.698;2022-11-15T07:00:40;14.90;99.90
16863;DHT22;52193;48.216;-1.698;2022-11-15T07:03:07;14.90;99.90
16863;DHT22;52193;48.216;-1.698;2022-11-15T07:05:34;14.90;99.90
16863;DHT22;52193;48.216;-1.698;2022-11-15T07:08:02;15.00;99.90
16863;DHT22;52193;48.216;-1.698;2022-11-15T07:10:30;15.00;99.90
16863;DHT22;52193;48.216;-1.698;2022-11-15T07:12:57;15.00;99.90
16863;DHT22;52193;48.216;-1.698;2022-11-15T07:15:25;15.00;99.90
16863;DHT22;52193;48.216;-1.698;2022-11-15T07:17:52;15.00;99.90
16863;DHT22;52193;48.216;-1.698;2022-11-15T07:20:19;15.10;99.90
16863;DHT22;52193;48.216;-1.698;2022-11-15T07:22:46;15.10;99.90
16863;DHT22;52193;48.216;-1.698;2022-11-15T07:25:13;15.10;99.90
16863;DHT22;52193;48.216;-1.698;2022-11-15T07:27:41;15.10;99.90
16863;DHT22;52193;48.216;-1.698;2022-11-15T07:30:09;15.20;99.90
16863;DHT22;52193;48.216;-1.698;2022-11-15T07:32:36;15.20;99.90
16863;DHT22;52193;48.216;-1.698;2022-11-15T07:35:04;15.20;99.90
16863;DHT22;52193;48.216;-1.698;2022-11-15T07:37:31;15.20;99.90
16863;DHT22;52193;48.216;-1.698;2022-11-15T07:39:58;15.20;99.90
16863;DHT22;52193;48.216;-1.698;2022-11-15T07:42:24;15.20;99.90
16863;DHT22;52193;48.216;-1.698;2022-11-15T07:45:10;15.10;99.90
16863;DHT22;52193;48.216;-1.698;2022-11-15T07:47:37;15.10;99.90
16863;DHT22;52193;48.216;-1.698;2022-11-15T07:50:05;15.20;99.90
16863;DHT22;52193;48.216;-1.698;2022-11-15T07:52:32;15.10;99.90
16863;DHT22;52193;48.216;-1.698;2022-11-15T07:54:59;15.10;99.90
16863;DHT22;52193;48.216;-1.698;2022-11-15T07:57:26;15.10;99.90
16863;DHT22;52193;48.216;-1.698;2022-11-15T07:59:53;15.20;99.90
16863;DHT22;52193;48.216;-1.698;2022-11-15T08:02:21;15.20;99.90
16863;DHT22;52193;48.216;-1.698;2022-11-15T08:04:48;15.20;99.90
16863;DHT22;52193;48.216;-1.698;2022-11-15T08:07:15;15.20;99.90
16863;DHT22;52193;48.216;-1.698;2022-11-15T08:09:42;15.20;99.90
16863;DHT22;52193;48.216;-1.698;2022-11-15T08:12:09;15.20;99.90
16863;DHT22;52193;48.216;-1.698;2022-11-15T08:14:36;15.20;99.90
16863;DHT22;52193;48.216;-1.698;2022-11-15T08:17:03;15.20;99.90
16863;DHT22;52193;48.216;-1.698;2022-11-15T08:19:31;15.20;99.90
16863;DHT22;52193;48.216;-1.698;2022-11-15T08:21:58;15.10;99.90
16863;DHT22;52193;48.216;-1.698;2022-11-15T08:24:25;15.10;99.90
16863;DHT22;52193;48.216;-1.698;2022-11-15T08:26:52;15.00;99.90
16863;DHT22;52193;48.216;-1.698;2022-11-15T08:29:19;15.00;99.90
16863;DHT22;52193;48.216;-1.698;2022-11-15T08:31:46;15.00;99.90
16863;DHT22;52193;48.216;-1.698;2022-11-15T08:34:12;15.00;99.90
16863;DHT22;52193;48.216;-1.698;2022-11-15T08:36:41;15.00;99.90
16863;DHT22;52193;48.216;-1.698;2022-11-15T08:39:10;15.10;99.90
16863;DHT22;52193;48.216;-1.698;2022-11-15T08:41:37;15.00;99.90
16863;DHT22;52193;48.216;-1.698;2022-11-15T08:44:05;15.10;99.90
16863;DHT22;52193;48.216;-1.698;2022-11-15T08:46:31;15.10;99.90
16863;DHT22;52193;48.216;-1.698;2022-11-15T08:48:58;15.10;99.90
16863;DHT22;52193;48.216;-1.698;2022-11-15T08:51:25;15.10;99.90
16863;DHT22;52193;48.216;-1.698;2022-11-15T08:53:54;15.10;99.90
16863;DHT22;52193;48.216;-1.698;2022-11-15T08:56:21;15.00;99.90
16863;DHT22;52193;48.216;-1.698;2022-11-15T08:58:47;15.00;99.90
16863;DHT22;52193;48.216;-1.698;2022-11-15T09:01:16;15.00;99.90
16863;DHT22;52193;48.216;-1.698;2022-11-15T09:03:44;15.10;99.90
16863;DHT22;52193;48.216;-1.698;2022-11-15T09:06:11;15.20;99.90
16863;DHT22;52193;48.216;-1.698;2022-11-15T09:08:39;15.20;99.90
16863;DHT22;52193;48.216;-1.698;2022-11-15T09:11:09;15.30;99.90
16863;DHT22;52193;48.216;-1.698;2022-11-15T09:13:36;15.30;99.90
16863;DHT22;52193;48.216;-1.698;2022-11-15T09:16:04;15.30;99.90
16863;DHT22;52193;48.216;-1.698;2022-11-15T09:18:31;15.30;99.90
16863;DHT22;52193;48.216;-1.698;2022-11-15T09:20:59;15.30;99.90
16863;DHT22;52193;48.216;-1.698;2022-11-15T09:23:27;15.20;99.90
16863;DHT22;52193;48.216;-1.698;2022-11-15T09:25:58;15.20;99.90
16863;DHT22;52193;48.216;-1.698;2022-11-15T09:28:27;15.30;99.90
16863;DHT22;52193;48.216;-1.698;2022-11-15T09:30:56;15.30;99.90
16863;DHT22;52193;48.216;-1.698;2022-11-15T09:33:24;15.30;99.90
16863;DHT22;52193;48.216;-1.698;2022-11-15T09:35:51;15.30;99.90
16863;DHT22;52193;48.216;-1.698;2022-11-15T09:38:19;15.30;99.90
16863;DHT22;52193;48.216;-1.698;2022-11-15T09:40:50;15.40;99.90
16863;DHT22;52193;48.216;-1.698;2022-11-15T09:43:29;15.40;99.90
16863;DHT22;52193;48.216;-1.698;2022-11-15T09:46:07;15.40;99.90
16863;DHT22;52193;48.216;-1.698;2022-11-15T09:48:50;15.40;99.90
16863;DHT22;52193;48.216;-1.698;2022-11-15T09:51:27;15.50;99.90
16863;DHT22;52193;48.216;-1.698;2022-11-15T09:54:00;15.40;99.90
16863;DHT22;52193;48.216;-1.698;2022-11-15T09:56:30;15.40;99.90
16863;DHT22;52193;48.216;-1.698;2022-11-15T09:59:10;15.40;99.90
16863;DHT22;52193;48.216;-1.698;2022-11-15T10:01:45;15.40;99.90
16863;DHT22;52193;48.216;-1.698;2022-11-15T10:04:15;15.50;99.90
16863;DHT22;52193;48.216;-1.698;2022-11-15T10:06:46;15.50;99.90
16863;DHT22;52193;48.216;-1.698;2022-11-15T10:09:20;15.40;99.90
16863;DHT22;52193;48.216;-1.698;2022-11-15T10:11:50;15.30;99.90
16863;DHT22;52193;48.216;-1.698;2022-11-15T10:14:20;15.30;99.90
16863;DHT22;52193;48.216;-1.698;2022-11-15T10:17:06;15.30;99.90
16863;DHT22;52193;48.216;-1.698;2022-11-15T10:19:44;15.30;99.90
16863;DHT22;52193;48.216;-1.698;2022-11-15T10:22:24;15.40;99.90
16863;DHT22;52193;48.216;-1.698;2022-11-15T10:25:09;15.40;99.90
16863;DHT22;52193;48.216;-1.698;2022-11-15T10:27:39;15.50;99.90
16863;DHT22;52193;48.216;-1.698;2022-11-15T10:30:13;15.40;99.90
16863;DHT22;52193;48.216;-1.698;2022-11-15T10:32:42;15.50;99.90
16863;DHT22;52193;48.216;-1.698;2022-11-15T10:35:21;15.50;99.90
16863;DHT22;52193;48.216;-1.698;2022-11-15T10:37:48;15.60;99.90
16863;DHT22;52193;48.216;-1.698;2022-11-15T10:40:17;15.60;99.90
16863;DHT22;52193;48.216;-1.698;2022-11-15T10:42:45;15.70;99.90
16863;DHT22;52193;48.216;-1.698;2022-11-15T10:45:26;15.70;99.90
16863;DHT22;52193;48.216;-1.698;2022-11-15T10:47:53;15.80;99.90
16863;DHT22;52193;48.216;-1.698;2022-11-15T10:50:28;15.80;99.90
16863;DHT22;52193;48.216;-1.698;2022-11-15T10:52:56;15.80;99.90
16863;DHT22;52193;48.216;-1.698;2022-11-15T10:55:28;15.90;99.90
16863;DHT22;52193;48.216;-1.698;2022-11-15T10:58:02;15.90;99.90
16863;DHT22;52193;48.216;-1.698;2022-11-15T11:00:34;16.00;99.90
16863;DHT22;52193;48.216;-1.698;2022-11-15T11:03:03;16.00;99.90
16863;DHT22;52193;48.216;-1.698;2022-11-15T11:05:34;16.00;99.90
16863;DHT22;52193;48.216;-1.698;2022-11-15T11:08:08;15.90;99.90
16863;DHT22;52193;48.216;-1.698;2022-11-15T11:10:52;16.00;99.90
16863;DHT22;52193;48.216;-1.698;2022-11-15T11:13:22;16.00;99.90
16863;DHT22;52193;48.216;-1.698;2022-11-15T11:15:58;16.10;99.90
16863;DHT22;52193;48.216;-1.698;2022-11-15T11:18:31;16.10;99.90
16863;DHT22;52193;48.216;-1.698;2022-11-15T11:21:02;16.10;99.90
16863;DHT22;52193;48.216;-1.698;2022-11-15T11:23:42;16.20;99.90
16863;DHT22;52193;48.216;-1.698;2022-11-15T11:26:26;16.20;99.90
16863;DHT22;52193;48.216;-1.698;2022-11-15T11:29:05;16.30;99.90
16863;DHT22;52193;48.216;-1.698;2022-11-15T11:31:43;16.40;99.90
16863;DHT22;52193;48.216;-1.698;2022-11-15T11:34:17;16.40;99.90
16863;DHT22;52193;48.216;-1.698;2022-11-15T11:36:52;16.40;99.90
16863;DHT22;52193;48.216;-1.698;2022-11-15T11:39:26;16.50;99.90
16863;DHT22;52193;48.216;-1.698;2022-11-15T11:42:01;16.60;99.90
16863;DHT22;52193;48.216;-1.698;2022-11-15T11:44:41;16.70;99.90
16863;DHT22;52193;48.216;-1.698;2022-11-15T11:47:14;16.80;99.90
16863;DHT22;52193;48.216;-1.698;2022-11-15T11:49:48;16.80;99.90
16863;DHT22;52193;48.216;-1.698;2022-11-15T11:52:18;16.80;99.90
16863;DHT22;52193;48.216;-1.698;2022-11-15T11:54:58;16.90;99.90
16863;DHT22;52193;48.216;-1.698;2022-11-15T11:57:39;16.90;99.90
16863;DHT22;52193;48.216;-1.698;2022-11-15T12:00:17;17.00;99.90
16863;DHT22;52193;48.216;-1.698;2022-11-15T12:03:05;16.90;99.90
16863;DHT22;52193;48.216;-1.698;2022-11-15T12:05:37;17.00;99.90
16863;DHT22;52193;48.216;-1.698;2022-11-15T12:08:26;17.10;99.90
16863;DHT22;52193;48.216;-1.698;2022-11-15T12:11:00;17.20;99.90
16863;DHT22;52193;48.216;-1.698;2022-11-15T12:13:29;17.20;99.90
16863;DHT22;52193;48.216;-1.698;2022-11-15T12:16:05;17.30;99.90
16863;DHT22;52193;48.216;-1.698;2022-11-15T12:18:35;17.40;99.90
16863;DHT22;52193;48.216;-1.698;2022-11-15T12:21:06;17.40;99.90
16863;DHT22;52193;48.216;-1.698;2022-11-15T12:23:40;17.30;99.90
16863;DHT22;52193;48.216;-1.698;2022-11-15T12:26:14;17.30;99.90
16863;DHT22;52193;48.216;-1.698;2022-11-15T12:28:46;17.40;99.90
16863;DHT22;52193;48.216;-1.698;2022-11-15T12:31:17;17.50;99.90
16863;DHT22;52193;48.216;-1.698;2022-11-15T12:33:48;17.50;99.90
16863;DHT22;52193;48.216;-1.698;2022-11-15T12:36:34;17.60;99.90
16863;DHT22;52193;48.216;-1.698;2022-11-15T12:39:02;17.60;99.90
16863;DHT22;52193;48.216;-1.698;2022-11-15T12:41:31;17.70;99.90
16863;DHT22;52193;48.216;-1.698;2022-11-15T12:43:58;17.80;99.90
16863;DHT22;52193;48.216;-1.698;2022-11-15T12:49:49;17.90;99.90
16863;DHT22;52193;48.216;-1.698;2022-11-15T12:52:17;17.90;99.90
16863;DHT22;52193;48.216;-1.698;2022-11-15T12:55:02;18.00;99.90
16863;DHT22;52193;48.216;-1.698;2022-11-15T12:57:35;18.00;99.90
16863;DHT22;52193;48.216;-1.698;2022-11-15T13:02:47;18.00;99.90
16863;DHT22;52193;48.216;-1.698;2022-11-15T13:06:02;18.00;99.90
16863;DHT22;52193;48.216;-1.698;2022-11-15T13:08:48;18.00;99.90
16863;DHT22;52193;48.216;-1.698;2022-11-15T13:11:49;18.00;99.90
16863;DHT22;52193;48.216;-1.698;2022-11-15T13:14:38;17.80;99.90
16863;DHT22;52193;48.216;-1.698;2022-11-15T13:17:26;17.90;99.90
16863;DHT22;52193;48.216;-1.698;2022-11-15T13:19:58;17.80;99.90
16863;DHT22;52193;48.216;-1.698;2022-11-15T13:22:27;17.80;99.90
16863;DHT22;52193;48.216;-1.698;2022-11-15T13:25:15;17.80;99.90
16863;DHT22;52193;48.216;-1.698;2022-11-15T13:27:45;17.80;99.90
16863;DHT22;52193;48.216;-1.698;2022-11-15T13:30:15;17.80;99.90
16863;DHT22;52193;48.216;-1.698;2022-11-15T13:32:45;18.00;99.90
16863;DHT22;52193;48.216;-1.698;2022-11-15T13:35:20;17.90;99.90
16863;DHT22;52193;48.216;-1.698;2022-11-15T13:37:49;17.90;99.90
16863;DHT22;52193;48.216;-1.698;2022-11-15T13:40:24;18.00;99.90
16863;DHT22;52193;48.216;-1.698;2022-11-15T13:42:53;17.90;99.90
16863;DHT22;52193;48.216;-1.698;2022-11-15T13:45:20;17.80;99.90
16863;DHT22;52193;48.216;-1.698;2022-11-15T13:47:56;17.40;99.90
16863;DHT22;52193;48.216;-1.698;2022-11-15T13:50:27;17.10;99.90
16863;DHT22;52193;48.216;-1.698;2022-11-15T13:52:59;16.90;99.90
16863;DHT22;52193;48.216;-1.698;2022-11-15T13:55:29;16.80;99.90
16863;DHT22;52193;48.216;-1.698;2022-11-15T13:58:00;16.80;99.90
16863;DHT22;52193;48.216;-1.698;2022-11-15T14:00:35;16.90;99.90
16863;DHT22;52193;48.216;-1.698;2022-11-15T14:03:11;16.90;99.90
16863;DHT22;52193;48.216;-1.698;2022-11-15T14:05:40;16.90;99.90
16863;DHT22;52193;48.216;-1.698;2022-11-15T14:08:22;17.10;99.90
16863;DHT22;52193;48.216;-1.698;2022-11-15T14:11:06;17.10;99.90
16863;DHT22;52193;48.216;-1.698;2022-11-15T14:13:33;17.20;99.90
16863;DHT22;52193;48.216;-1.698;2022-11-15T14:16:13;17.20;99.90
16863;DHT22;52193;48.216;-1.698;2022-11-15T14:18:43;17.30;99.90
16863;DHT22;52193;48.216;-1.698;2022-11-15T14:21:10;17.40;99.90
16863;DHT22;52193;48.216;-1.698;2022-11-15T14:23:38;17.30;99.90
16863;DHT22;52193;48.216;-1.698;2022-11-15T14:26:05;17.40;99.90
16863;DHT22;52193;48.216;-1.698;2022-11-15T14:28:33;17.40;99.90
16863;DHT22;52193;48.216;-1.698;2022-11-15T14:31:10;17.40;99.90
16863;DHT22;52193;48.216;-1.698;2022-11-15T14:33:39;17.50;99.90
16863;DHT22;52193;48.216;-1.698;2022-11-15T14:36:10;17.50;99.90
16863;DHT22;52193;48.216;-1.698;2022-11-15T14:38:39;17.50;99.90
16863;DHT22;52193;48.216;-1.698;2022-11-15T14:41:15;17.50;99.90
16863;DHT22;52193;48.216;-1.698;2022-11-15T14:43:43;17.50;99.90
16863;DHT22;52193;48.216;-1.698;2022-11-15T14:46:10;17.50;99.90
16863;DHT22;52193;48.216;-1.698;2022-11-15T14:48:37;17.40;99.90
16863;DHT22;52193;48.216;-1.698;2022-11-15T14:51:11;17.40;99.90
16863;DHT22;52193;48.216;-1.698;2022-11-15T14:53:40;17.30;99.90
16863;DHT22;52193;48.216;-1.698;2022-11-15T14:56:07;17.20;99.90
16863;DHT22;52193;48.216;-1.698;2022-11-15T14:58:34;17.30;99.90
16863;DHT22;52193;48.216;-1.698;2022-11-15T15:01:02;17.30;99.90
16863;DHT22;52193;48.216;-1.698;2022-11-15T15:03:30;17.30;99.90
16863;DHT22;52193;48.216;-1.698;2022-11-15T15:05:57;17.10;99.90
16863;DHT22;52193;48.216;-1.698;2022-11-15T15:08:24;17.10;99.90
16863;DHT22;52193;48.216;-1.698;2022-11-15T15:10:52;17.00;99.90
16863;DHT22;52193;48.216;-1.698;2022-11-15T15:13:21;17.00;99.90
16863;DHT22;52193;48.216;-1.698;2022-11-15T15:15:49;17.10;99.90
16863;DHT22;52193;48.216;-1.698;2022-11-15T15:18:16;17.10;99.90
16863;DHT22;52193;48.216;-1.698;2022-11-15T15:20:44;17.10;99.90
16863;DHT22;52193;48.216;-1.698;2022-11-15T15:23:15;17.10;99.90
16863;DHT22;52193;48.216;-1.698;2022-11-15T15:25:43;17.10;99.90
16863;DHT22;52193;48.216;-1.698;2022-11-15T15:31:19;17.10;99.90
16863;DHT22;52193;48.216;-1.698;2022-11-15T15:33:46;17.00;99.90
16863;DHT22;52193;48.216;-1.698;2022-11-15T15:36:14;16.90;99.90
16863;DHT22;52193;48.216;-1.698;2022-11-15T15:38:43;16.80;99.90
16863;DHT22;52193;48.216;-1.698;2022-11-15T15:41:12;16.80;99.90
16863;DHT22;52193;48.216;-1.698;2022-11-15T15:43:40;16.80;99.90
16863;DHT22;52193;48.216;-1.698;2022-11-15T15:46:09;16.70;99.90
16863;DHT22;52193;48.216;-1.698;2022-11-15T15:48:38;16.70;99.90
16863;DHT22;52193;48.216;-1.698;2022-11-15T15:51:08;16.60;99.90